createdAt,value
2022-07-26T00:01:31.938Z,22.94
2022-07-26T00:04:01.700Z,23.02
2022-07-26T00:06:31.346Z,22.90
2022-07-26T00:09:00.901Z,22.91
2022-07-26T00:11:33.759Z,22.99
2022-07-26T00:14:08.675Z,23.02
2022-07-26T00:16:38.890Z,23.02
2022-07-26T00:19:09.943Z,23.01
2022-07-26T00:21:40.680Z,22.74
2022-07-26T00:24:10.918Z,22.49
2022-07-26T00:26:40.383Z,22.19
2022-07-26T00:29:09.906Z,22.12
2022-07-26T00:31:39.470Z,22.01
2022-07-26T00:34:08.889Z,21.79
2022-07-26T00:36:39.206Z,21.67
2022-07-26T00:39:11.574Z,21.57
2022-07-26T00:41:41.099Z,21.47
2022-07-26T00:44:10.617Z,21.39
2022-07-26T00:46:40.085Z,21.29
2022-07-26T00:49:09.901Z,21.22
2022-07-26T00:51:40.104Z,21.16
2022-07-26T00:54:10.617Z,21.09
2022-07-26T00:56:40.642Z,21.02
2022-07-26T00:59:10.469Z,20.96
2022-07-26T01:01:40.071Z,20.97
2022-07-26T01:04:09.757Z,21.00
2022-07-26T01:06:39.457Z,21.04
2022-07-26T01:09:08.856Z,21.01
2022-07-26T01:11:38.113Z,21.01
2022-07-26T01:14:07.705Z,20.96
2022-07-26T01:16:37.279Z,20.95
2022-07-26T01:19:06.664Z,21.00
2022-07-26T01:21:36.706Z,21.02
2022-07-26T01:24:06.440Z,21.02
2022-07-26T01:26:35.940Z,21.02
2022-07-26T01:29:05.339Z,21.02
2022-07-26T01:31:34.702Z,20.99
2022-07-26T01:34:04.196Z,20.87
2022-07-26T01:36:33.471Z,20.85
2022-07-26T01:39:02.846Z,20.79
2022-07-26T01:41:38.388Z,20.81
2022-07-26T01:44:08.884Z,20.80
2022-07-26T01:46:38.444Z,20.77
2022-07-26T01:49:09.168Z,20.77
2022-07-26T01:51:38.789Z,20.81
2022-07-26T01:54:08.419Z,20.83
2022-07-26T01:56:37.978Z,20.85
2022-07-26T01:59:07.724Z,20.87
2022-07-26T02:01:39.501Z,20.84
2022-07-26T02:04:30.173Z,20.82
2022-07-26T02:06:59.748Z,20.75
2022-07-26T02:09:31.541Z,20.75
2022-07-26T02:12:07.763Z,20.69
2022-07-26T02:14:37.147Z,20.62
2022-07-26T02:17:06.889Z,20.68
2022-07-26T02:19:36.189Z,20.71
2022-07-26T02:22:05.694Z,20.61
2022-07-26T02:24:34.973Z,20.57
2022-07-26T02:27:05.417Z,20.61
2022-07-26T02:29:34.761Z,20.67
2022-07-26T02:32:04.076Z,20.70
2022-07-26T02:34:34.043Z,20.71
2022-07-26T02:37:03.839Z,20.63
2022-07-26T02:39:33.205Z,20.59
2022-07-26T02:42:04.277Z,20.55
2022-07-26T02:44:35.342Z,20.48
2022-07-26T02:47:05.081Z,20.39
2022-07-26T02:49:34.335Z,20.43
2022-07-26T02:52:03.627Z,20.49
2022-07-26T02:54:32.920Z,20.53
2022-07-26T02:57:02.172Z,20.53
2022-07-26T02:59:31.417Z,20.48
2022-07-26T03:02:01.127Z,20.41
2022-07-26T03:04:30.546Z,20.39
2022-07-26T03:06:59.788Z,20.37
2022-07-26T03:09:29.081Z,20.39
2022-07-26T03:11:58.382Z,20.40
2022-07-26T03:14:27.619Z,20.29
2022-07-26T03:16:56.933Z,20.29
2022-07-26T03:19:26.225Z,20.30
2022-07-26T03:21:55.451Z,20.30
2022-07-26T03:24:24.703Z,20.31
2022-07-26T03:26:54.042Z,20.31
2022-07-26T03:29:23.321Z,20.29
2022-07-26T03:31:52.630Z,20.29
2022-07-26T03:34:22.339Z,20.26
2022-07-26T03:36:51.636Z,20.20
2022-07-26T03:39:20.940Z,20.17
2022-07-26T03:41:50.168Z,20.13
2022-07-26T03:44:19.447Z,20.11
2022-07-26T03:46:48.767Z,20.14
2022-07-26T03:49:18.351Z,20.04
2022-07-26T03:51:47.940Z,19.95
2022-07-26T03:54:17.258Z,19.87
2022-07-26T03:56:43.979Z,19.80
2022-07-26T03:59:14.480Z,19.81
2022-07-26T04:01:44.686Z,19.82
2022-07-26T04:04:15.945Z,19.81
2022-07-26T04:06:48.604Z,19.76
2022-07-26T04:09:18.252Z,19.75
2022-07-26T04:11:48.765Z,19.77
2022-07-26T04:14:18.020Z,19.82
2022-07-26T04:16:47.347Z,19.85
2022-07-26T04:19:16.712Z,19.89
2022-07-26T04:21:45.950Z,19.93
2022-07-26T04:24:15.232Z,19.95
2022-07-26T04:26:44.515Z,19.96
2022-07-26T04:29:15.249Z,19.96
2022-07-26T04:31:44.578Z,19.88
2022-07-26T04:34:13.837Z,19.86
2022-07-26T04:36:43.178Z,19.84
2022-07-26T04:39:12.536Z,19.83
2022-07-26T04:41:41.966Z,19.85
2022-07-26T04:44:11.533Z,19.83
2022-07-26T04:46:44.918Z,19.84
2022-07-26T04:49:14.673Z,19.87
2022-07-26T04:51:43.995Z,19.88
2022-07-26T04:54:15.659Z,19.91
2022-07-26T04:56:44.908Z,19.94
2022-07-26T04:59:18.462Z,19.97
2022-07-26T05:01:50.726Z,19.92
2022-07-26T05:04:20.033Z,19.92
2022-07-26T05:06:49.265Z,19.91
2022-07-26T05:09:18.528Z,19.89
2022-07-26T05:11:47.780Z,19.92
2022-07-26T05:14:17.066Z,19.89
2022-07-26T05:16:47.185Z,19.90
2022-07-26T05:19:16.969Z,19.91
2022-07-26T05:21:46.359Z,19.94
2022-07-26T05:24:15.659Z,19.93
2022-07-26T05:26:45.045Z,19.97
2022-07-26T05:29:14.321Z,19.95
2022-07-26T05:31:43.643Z,19.93
2022-07-26T05:34:13.868Z,19.94
2022-07-26T05:36:43.144Z,19.91
2022-07-26T05:39:15.919Z,19.89
2022-07-26T05:41:45.479Z,19.93
2022-07-26T05:44:15.408Z,19.92
2022-07-26T05:46:44.683Z,19.97
2022-07-26T05:49:14.117Z,19.97
2022-07-26T05:51:43.399Z,20.00
2022-07-26T05:54:12.710Z,20.05
2022-07-26T05:56:42.033Z,20.06
2022-07-26T05:59:11.276Z,20.07
2022-07-26T06:01:40.623Z,20.09
2022-07-26T06:04:10.963Z,20.13
2022-07-26T06:06:40.440Z,20.11
2022-07-26T06:09:09.727Z,20.13
2022-07-26T06:11:38.998Z,20.11
2022-07-26T06:14:08.545Z,20.17
2022-07-26T06:16:38.214Z,20.21
2022-07-26T06:19:07.466Z,20.19
2022-07-26T06:21:36.711Z,20.22
2022-07-26T06:24:06.333Z,20.23
2022-07-26T06:26:35.901Z,20.24
2022-07-26T06:29:05.270Z,20.28
2022-07-26T06:31:34.663Z,20.26
2022-07-26T06:34:04.174Z,20.31
2022-07-26T06:36:33.398Z,20.37
2022-07-26T06:39:02.760Z,20.44
2022-07-26T06:41:32.088Z,20.54
2022-07-26T06:44:01.349Z,20.62
2022-07-26T06:46:30.714Z,20.70
2022-07-26T06:49:00.052Z,20.77
2022-07-26T06:51:29.461Z,20.88
2022-07-26T06:53:58.726Z,20.98
2022-07-26T06:56:30.298Z,21.07
2022-07-26T06:58:59.572Z,21.16
2022-07-26T07:01:55.551Z,21.27
2022-07-26T07:04:18.529Z,21.42
2022-07-26T07:06:47.787Z,21.57
2022-07-26T07:09:18.902Z,21.69
2022-07-26T07:11:49.859Z,21.85
2022-07-26T07:14:25.786Z,21.92
2022-07-26T07:16:55.318Z,22.01
2022-07-26T07:19:24.680Z,22.15
2022-07-26T07:21:54.020Z,22.35
2022-07-26T07:24:23.864Z,22.69
2022-07-26T07:26:53.396Z,22.91
2022-07-26T07:29:24.533Z,23.08
2022-07-26T07:31:53.807Z,23.18
2022-07-26T07:34:26.544Z,23.31
2022-07-26T07:36:56.700Z,23.35
2022-07-26T07:39:34.434Z,23.16
2022-07-26T07:42:04.128Z,23.09
2022-07-26T07:44:33.380Z,23.04
2022-07-26T07:47:02.948Z,22.98
2022-07-26T07:49:32.660Z,22.84
2022-07-26T07:52:02.017Z,22.72
2022-07-26T07:54:32.153Z,22.71
2022-07-26T07:57:01.782Z,22.80
2022-07-26T07:59:31.411Z,22.90
2022-07-26T08:02:00.633Z,23.01
2022-07-26T08:04:30.011Z,23.29
2022-07-26T08:06:59.314Z,23.57
2022-07-26T08:09:28.855Z,23.87
2022-07-26T08:11:58.337Z,24.21
2022-07-26T08:14:28.019Z,24.51
2022-07-26T08:16:57.919Z,24.74
2022-07-26T08:19:30.525Z,24.75
2022-07-26T08:22:11.371Z,24.45
2022-07-26T08:24:41.098Z,24.23
2022-07-26T08:27:10.402Z,23.96
2022-07-26T08:29:39.646Z,23.83
2022-07-26T08:32:09.123Z,23.69
2022-07-26T08:34:38.411Z,23.69
2022-07-26T08:37:17.110Z,23.72
2022-07-26T08:39:47.124Z,23.65
2022-07-26T08:42:22.769Z,23.66
2022-07-26T08:44:53.374Z,23.80
2022-07-26T08:47:37.843Z,23.79
2022-07-26T08:50:12.344Z,23.70
2022-07-26T08:52:43.718Z,23.63
2022-07-26T08:55:13.810Z,23.65
2022-07-26T08:57:43.081Z,23.62
2022-07-26T09:00:24.955Z,23.56
2022-07-26T09:02:55.845Z,23.69
2022-07-26T09:05:40.068Z,23.71
2022-07-26T09:08:27.134Z,23.54
2022-07-26T09:10:56.373Z,23.42
2022-07-26T09:13:25.941Z,23.42
2022-07-26T09:16:13.869Z,23.39
2022-07-26T09:18:43.238Z,23.33
2022-07-26T09:21:31.952Z,23.38
2022-07-26T09:24:02.017Z,23.37
2022-07-26T09:26:31.240Z,23.36
2022-07-26T09:29:10.431Z,23.31
2022-07-26T09:31:44.149Z,23.27
2022-07-26T09:34:13.715Z,23.47
2022-07-26T09:36:56.796Z,23.62
2022-07-26T09:39:33.504Z,23.86
2022-07-26T09:42:28.502Z,23.99
2022-07-26T09:44:59.298Z,24.05
2022-07-26T09:47:38.846Z,24.00
2022-07-26T09:50:19.827Z,24.08
2022-07-26T09:53:11.959Z,24.14
2022-07-26T09:55:47.163Z,24.16
2022-07-26T09:58:19.182Z,24.16
2022-07-26T10:00:48.611Z,24.07
2022-07-26T10:03:18.121Z,24.00
2022-07-26T10:05:47.645Z,24.19
2022-07-26T10:08:17.141Z,24.51
2022-07-26T10:10:49.750Z,24.84
2022-07-26T10:13:19.423Z,25.05
2022-07-26T10:15:51.405Z,25.02
2022-07-26T10:18:40.739Z,24.98
2022-07-26T10:21:30.125Z,25.01
2022-07-26T10:24:03.963Z,24.94
2022-07-26T10:26:35.824Z,24.81
2022-07-26T10:29:26.854Z,24.78
2022-07-26T10:31:58.883Z,24.81
2022-07-26T10:34:42.249Z,24.89
2022-07-26T10:37:23.708Z,24.88
2022-07-26T10:40:17.425Z,24.82
2022-07-26T10:42:47.786Z,24.88
2022-07-26T10:45:25.111Z,25.06
2022-07-26T10:48:12.405Z,25.28
2022-07-26T10:50:42.657Z,25.36
2022-07-26T10:53:13.547Z,25.50
2022-07-26T10:56:01.562Z,25.69
2022-07-26T10:58:30.837Z,25.93
2022-07-26T11:01:06.875Z,26.09
2022-07-26T11:03:44.426Z,26.23
2022-07-26T11:06:21.723Z,26.22
2022-07-26T11:08:51.562Z,26.15
2022-07-26T11:11:34.001Z,26.03
2022-07-26T11:14:10.668Z,25.87
2022-07-26T11:16:51.133Z,25.76
2022-07-26T11:19:23.444Z,25.70
2022-07-26T11:21:58.775Z,25.67
2022-07-26T11:24:28.221Z,25.73
2022-07-26T11:26:57.947Z,25.86
2022-07-26T11:29:38.009Z,25.96
2022-07-26T11:32:14.853Z,25.94
2022-07-26T11:34:46.627Z,25.78
2022-07-26T11:37:16.390Z,25.73
2022-07-26T11:39:45.621Z,25.69
2022-07-26T11:42:17.116Z,25.70
2022-07-26T11:44:48.374Z,25.57
2022-07-26T11:47:27.043Z,25.49
2022-07-26T11:52:46.305Z,25.67
2022-07-26T11:55:15.683Z,25.76
2022-07-26T11:57:44.955Z,25.81
2022-07-26T12:00:15.285Z,25.85
2022-07-26T12:02:44.794Z,25.85
2022-07-26T12:05:22.583Z,25.73
2022-07-26T12:08:04.551Z,25.75
2022-07-26T12:10:34.229Z,25.76
2022-07-26T12:13:14.724Z,25.87
2022-07-26T12:15:55.579Z,26.02
2022-07-26T12:18:29.741Z,26.10
2022-07-26T12:21:04.459Z,26.23
2022-07-26T12:23:49.990Z,26.31
2022-07-26T12:26:32.160Z,26.33
2022-07-26T12:29:22.144Z,26.30
2022-07-26T12:32:14.209Z,26.33
2022-07-26T12:34:45.040Z,26.34
2022-07-26T12:37:19.860Z,26.39
2022-07-26T12:40:04.397Z,26.47
2022-07-26T12:42:35.564Z,26.52
2022-07-26T12:45:06.555Z,26.59
2022-07-26T12:47:36.151Z,26.57
2022-07-26T12:50:07.722Z,26.54
2022-07-26T12:52:37.326Z,26.50
2022-07-26T12:55:08.468Z,26.58
2022-07-26T12:57:38.010Z,26.62
2022-07-26T13:00:16.345Z,26.61
2022-07-26T13:02:46.405Z,26.57
2022-07-26T13:05:16.276Z,26.57
2022-07-26T13:07:45.653Z,26.50
2022-07-26T13:10:33.504Z,26.44
2022-07-26T13:13:03.878Z,26.38
2022-07-26T13:15:36.023Z,26.39
2022-07-26T13:18:07.961Z,26.30
2022-07-26T13:20:39.734Z,26.37
2022-07-26T13:23:13.861Z,26.45
2022-07-26T13:25:45.211Z,26.51
2022-07-26T13:28:15.879Z,26.59
2022-07-26T13:30:45.400Z,26.60
2022-07-26T13:33:16.743Z,26.56
2022-07-26T13:35:50.387Z,26.45
2022-07-26T13:38:20.407Z,26.36
2022-07-26T13:40:50.529Z,26.31
2022-07-26T13:43:20.038Z,26.31
2022-07-26T13:45:49.293Z,26.34
2022-07-26T13:48:18.613Z,26.40
2022-07-26T13:50:47.867Z,26.49
2022-07-26T13:53:17.242Z,26.60
2022-07-26T13:55:46.601Z,26.67
2022-07-26T13:58:15.961Z,26.68
2022-07-26T14:00:45.418Z,26.59
2022-07-26T14:03:14.709Z,26.60
2022-07-26T14:05:44.008Z,26.64
2022-07-26T14:08:13.224Z,26.58
2022-07-26T14:10:43.286Z,26.60
2022-07-26T14:13:12.715Z,26.67
2022-07-26T14:15:41.986Z,26.77
2022-07-26T14:18:11.233Z,26.73
2022-07-26T14:20:40.567Z,26.57
2022-07-26T14:23:09.918Z,26.52
2022-07-26T14:25:39.359Z,26.51
2022-07-26T14:28:08.741Z,26.42
2022-07-26T14:30:38.397Z,26.41
2022-07-26T14:33:07.638Z,26.33
2022-07-26T14:35:36.911Z,26.33
2022-07-26T14:38:06.195Z,26.35
2022-07-26T14:40:35.534Z,26.36
2022-07-26T14:43:04.938Z,26.43
2022-07-26T14:45:34.326Z,26.50
2022-07-26T14:48:03.627Z,26.55
2022-07-26T14:50:53.066Z,26.61
2022-07-26T14:53:22.451Z,26.69
2022-07-26T14:55:51.748Z,26.64
2022-07-26T14:58:21.469Z,26.59
2022-07-26T15:00:50.873Z,26.46
2022-07-26T15:03:20.213Z,26.32
2022-07-26T15:05:49.473Z,26.23
2022-07-26T15:08:18.813Z,26.13
2022-07-26T15:10:48.139Z,26.05
2022-07-26T15:13:17.593Z,25.96
2022-07-26T15:15:46.889Z,26.02
2022-07-26T15:18:16.198Z,26.06
2022-07-26T15:20:45.469Z,26.12
2022-07-26T15:23:16.304Z,26.12
2022-07-26T15:25:48.634Z,26.04
2022-07-26T15:28:18.174Z,25.96
2022-07-26T15:30:47.580Z,25.87
2022-07-26T15:33:18.257Z,25.75
2022-07-26T15:35:47.607Z,25.61
2022-07-26T15:38:16.964Z,25.57
2022-07-26T15:40:46.288Z,25.53
2022-07-26T15:43:23.921Z,25.49
2022-07-26T15:46:12.771Z,25.41
2022-07-26T15:48:43.560Z,25.33
2022-07-26T15:51:12.934Z,25.32
2022-07-26T15:53:46.274Z,25.24
2022-07-26T15:56:16.171Z,25.16
2022-07-26T15:58:45.643Z,25.03
2022-07-26T16:01:16.478Z,24.93
2022-07-26T16:03:45.804Z,24.91
2022-07-26T16:06:15.203Z,24.89
2022-07-26T16:09:13.489Z,24.89
2022-07-26T16:11:34.173Z,24.87
2022-07-26T16:14:03.653Z,24.94
2022-07-26T16:16:33.502Z,24.96
2022-07-26T16:19:02.838Z,24.99
2022-07-26T16:21:32.115Z,25.00
2022-07-26T16:24:06.412Z,24.98
2022-07-26T16:26:36.511Z,24.83
2022-07-26T16:29:06.399Z,24.72
2022-07-26T16:31:35.764Z,24.68
2022-07-26T16:34:05.121Z,24.61
2022-07-26T16:36:34.865Z,24.56
2022-07-26T16:39:04.137Z,24.41
2022-07-26T16:41:33.485Z,24.32
2022-07-26T16:44:03.221Z,24.21
2022-07-26T16:46:32.654Z,24.15
2022-07-26T16:49:01.981Z,23.96
2022-07-26T16:51:33.985Z,23.85
2022-07-26T16:54:03.271Z,23.71
2022-07-26T16:56:32.529Z,23.72
2022-07-26T16:59:02.039Z,23.72
2022-07-26T17:01:31.293Z,23.70
2022-07-26T17:04:00.520Z,23.72
2022-07-26T17:06:29.896Z,23.66
2022-07-26T17:08:59.194Z,23.57
2022-07-26T17:11:28.459Z,23.56
2022-07-26T17:13:58.002Z,23.52
2022-07-26T17:16:27.463Z,23.47
2022-07-26T17:18:57.823Z,23.36
2022-07-26T17:21:27.187Z,23.18
2022-07-26T17:23:56.399Z,23.16
2022-07-26T17:26:25.764Z,23.17
2022-07-26T17:28:55.083Z,23.20
2022-07-26T17:31:24.719Z,23.19
2022-07-26T17:33:53.964Z,23.15
2022-07-26T17:36:32.249Z,23.06
2022-07-26T17:39:02.514Z,22.95
2022-07-26T17:41:33.106Z,22.76
2022-07-26T17:44:04.871Z,22.74
2022-07-26T17:46:35.052Z,22.71
2022-07-26T17:49:04.588Z,22.73
2022-07-26T17:51:33.931Z,22.58
2022-07-26T17:54:03.318Z,22.55
2022-07-26T17:56:32.582Z,22.53
2022-07-26T17:59:01.878Z,22.55
2022-07-26T18:01:31.170Z,22.49
2022-07-26T18:04:00.524Z,22.44
2022-07-26T18:06:29.839Z,22.42
2022-07-26T18:08:59.424Z,22.41
2022-07-26T18:11:28.743Z,22.38
2022-07-26T18:13:58.007Z,22.32
2022-07-26T18:16:27.487Z,22.21
2022-07-26T18:18:56.876Z,22.20
2022-07-26T18:21:26.111Z,22.20
2022-07-26T18:24:15.828Z,22.18
2022-07-26T18:26:44.855Z,22.00
2022-07-26T18:29:15.278Z,21.93
2022-07-26T18:31:44.602Z,21.89
2022-07-26T18:34:13.977Z,21.92
2022-07-26T18:36:43.277Z,21.84
2022-07-26T18:39:12.831Z,21.77
2022-07-26T18:41:42.314Z,21.67
2022-07-26T18:44:12.490Z,21.65
2022-07-26T18:46:41.864Z,21.67
2022-07-26T18:49:19.710Z,21.64
2022-07-26T18:51:50.490Z,21.63
2022-07-26T18:54:22.051Z,21.59
2022-07-26T18:56:51.300Z,21.51
2022-07-26T18:59:20.628Z,21.44
2022-07-26T19:01:49.972Z,21.39
2022-07-26T19:04:19.677Z,21.38
2022-07-26T19:06:51.179Z,21.39
2022-07-26T19:09:20.574Z,21.40
2022-07-26T19:11:49.941Z,21.34
2022-07-26T19:16:50.108Z,21.35
2022-07-26T19:19:19.341Z,21.35
2022-07-26T19:21:49.429Z,21.33
2022-07-26T19:24:18.706Z,21.36
2022-07-26T19:26:48.328Z,21.35
2022-07-26T19:29:18.465Z,21.27
2022-07-26T19:31:48.372Z,21.20
2022-07-26T19:34:17.711Z,21.18
2022-07-26T19:36:47.030Z,21.23
2022-07-26T19:39:16.738Z,21.22
2022-07-26T19:41:48.100Z,21.12
2022-07-26T19:44:18.409Z,21.03
2022-07-26T19:46:48.396Z,21.00
2022-07-26T19:49:17.930Z,21.00
2022-07-26T19:51:47.277Z,21.03
2022-07-26T19:54:16.571Z,20.97
2022-07-26T19:56:45.842Z,20.92
2022-07-26T19:59:20.979Z,20.88
2022-07-26T20:01:56.541Z,20.81
2022-07-26T20:04:27.915Z,20.76
2022-07-26T20:06:57.704Z,20.68
2022-07-26T20:09:27.093Z,20.60
2022-07-26T20:11:56.421Z,20.54
2022-07-26T20:14:25.670Z,20.49
2022-07-26T20:16:57.018Z,20.45
2022-07-26T20:19:29.929Z,20.41
2022-07-26T20:22:00.862Z,20.37
2022-07-26T20:24:30.205Z,20.32
2022-07-26T20:26:59.446Z,20.28
2022-07-26T20:29:28.726Z,20.25
2022-07-26T20:31:58.079Z,20.21
2022-07-26T20:34:27.369Z,20.21
2022-07-26T20:36:56.610Z,20.19
2022-07-26T20:39:27.962Z,20.22
2022-07-26T20:41:57.602Z,20.24
2022-07-26T20:44:28.634Z,20.24
2022-07-26T20:46:58.122Z,20.25
2022-07-26T20:49:27.410Z,20.23
2022-07-26T20:51:56.772Z,20.21
2022-07-26T20:54:26.141Z,20.15
2022-07-26T20:56:55.391Z,20.12
2022-07-26T20:59:24.784Z,20.15
2022-07-26T21:01:54.090Z,20.07
2022-07-26T21:04:23.355Z,20.12
2022-07-26T21:06:52.639Z,20.15
2022-07-26T21:09:21.890Z,20.21
2022-07-26T21:11:51.648Z,20.19
2022-07-26T21:14:20.915Z,20.18
2022-07-26T21:16:50.243Z,20.10
2022-07-26T21:19:19.614Z,20.02
2022-07-26T21:21:48.950Z,20.07
2022-07-26T21:24:18.977Z,20.10
2022-07-26T21:26:48.257Z,20.18
2022-07-26T21:29:17.602Z,20.26
2022-07-26T21:31:46.896Z,20.24
2022-07-26T21:34:16.653Z,20.28
2022-07-26T21:36:46.400Z,20.26
2022-07-26T21:39:15.729Z,20.25
2022-07-26T21:41:45.252Z,20.25
2022-07-26T21:44:14.502Z,20.23
2022-07-26T21:46:43.883Z,20.17
2022-07-26T21:49:13.701Z,20.06
2022-07-26T21:51:43.298Z,20.07
2022-07-26T21:54:12.684Z,20.05
2022-07-26T21:56:41.998Z,20.02
2022-07-26T21:59:11.574Z,20.05
2022-07-26T22:01:41.213Z,20.02
2022-07-26T22:04:10.766Z,19.94
2022-07-26T22:06:40.541Z,19.93
2022-07-26T22:09:10.023Z,19.95
2022-07-26T22:11:39.541Z,19.97
2022-07-26T22:14:10.186Z,19.96
2022-07-26T22:16:39.512Z,19.95
2022-07-26T22:19:09.068Z,19.95
2022-07-26T22:21:38.648Z,19.97
2022-07-26T22:24:08.449Z,19.99
2022-07-26T22:26:37.747Z,20.01
2022-07-26T22:29:09.240Z,20.02
2022-07-26T22:31:39.007Z,19.98
2022-07-26T22:34:08.325Z,19.99
2022-07-26T22:36:43.474Z,19.98
2022-07-26T22:39:15.139Z,19.92
2022-07-26T22:42:12.627Z,19.79
2022-07-26T22:44:34.946Z,19.76
2022-07-26T22:47:04.289Z,19.77
2022-07-26T22:49:33.629Z,19.80
2022-07-26T22:52:03.007Z,19.81
2022-07-26T22:54:32.444Z,19.65
2022-07-26T22:57:01.828Z,19.52
2022-07-26T22:59:31.153Z,19.50
2022-07-26T23:02:01.268Z,19.44
2022-07-26T23:04:30.518Z,19.43
2022-07-26T23:07:00.388Z,19.30
2022-07-26T23:09:30.748Z,19.16
2022-07-26T23:12:00.168Z,19.18
2022-07-26T23:14:29.648Z,19.18
2022-07-26T23:16:58.973Z,19.17
2022-07-26T23:19:28.416Z,19.18
2022-07-26T23:21:57.645Z,19.10
2022-07-26T23:24:26.962Z,19.08
2022-07-26T23:26:56.199Z,19.02
2022-07-26T23:29:25.553Z,18.95
2022-07-26T23:31:55.035Z,18.90
2022-07-26T23:34:24.561Z,18.76
2022-07-26T23:36:54.118Z,18.65
2022-07-26T23:39:23.386Z,18.47
2022-07-26T23:41:52.661Z,18.45
2022-07-26T23:44:21.896Z,18.37
2022-07-26T23:46:51.266Z,18.25
2022-07-26T23:49:20.597Z,18.17
2022-07-26T23:51:49.863Z,18.22
2022-07-26T23:54:19.207Z,18.28
2022-07-26T23:56:48.499Z,18.27
2022-07-26T23:59:17.845Z,18.25
